• Join FlightAware (Why Join?)
  • Login
  • US Flag 
Gobble Gobble! 
05:59AM EST


 

Airport Tracker/Info


-or-


 

Live Flight TrackerFlight Track Log ✈ CPZ5746 ✈ 07-May-2013 ✈ KBNA - KDTW

Flight Track Log - Related Links

Times and Time Zones

All times are in EDT time to prevent confusion due to time zone crossing. See the CPZ5746 flight status page for this flight to view local times or setup timezone preferences in your user account.

Time Position Orientation Groundspeed Altitude Reporting Facility
EDT Latitude Longitude Course Direction KTS MPH feet Rate Location/Type
05:20PM 36.1500 -86.6667 North 159 183 1,300  Level Nashville TRACON
05:21PM 36.1833 -86.6500 22° Northeast 160 184 2,700 1,860 Climbing Nashville TRACON
05:22PM 36.2333 -86.6333 15° North 238 274 4,700 2,460 Climbing Nashville TRACON
05:22PM 36.3000 -86.6500 349° North 270 311 7,200 2,820 Climbing Nashville TRACON
05:23PM 36.5123 -86.7162 355° North  Level FlightAware Approximate
05:23PM 36.3269 -86.6758 322° Northwest 269 310 8,100  Level Memphis Center
05:24PM 36.6106 -86.7333 North  Level FlightAware Approximate
05:24PM 36.4000 -86.6803 357° North 291 335 10,600  Level Memphis Center
05:25PM 36.7102 -86.7333 North  Level FlightAware Approximate
05:25PM 36.4883 -86.7047 347° North 302 348 12,400  Level Memphis Center
05:26PM 36.5828 -86.7314 347° North 328 377 15,100 2,400 Climbing Memphis Center
05:27PM 36.6789 -86.7400 356° North 341 392 17,300 2,100 Climbing Memphis Center
05:28PM 36.7811 -86.7433 359° North 356 410 19,400 2,040 Climbing Memphis Center
05:29PM 36.8836 -86.7517 356° North 369 425 21,400 1,740 Climbing Memphis Center
05:31PM 37.0789 -86.7647 357° North 387 445 24,400 1,560 Climbing Indianapolis Center
05:32PM 37.1908 -86.7758 355° North 396 456 25,900 1,320 Climbing Indianapolis Center
05:33PM 37.3061 -86.7842 357° North 408 470 27,200 1,140 Climbing Indianapolis Center
05:34PM 37.4208 -86.7719 North 409 471 28,300 1,020 Climbing Indianapolis Center
05:35PM 37.5369 -86.7528 North 420 483 29,400 1,140 Climbing Indianapolis Center
05:36PM 37.6533 -86.7336 North 421 484 30,700 1,200 Climbing Indianapolis Center
05:37PM 37.7678 -86.7150 North 415 478 32,000 1,080 Climbing Indianapolis Center
05:38PM 37.9053 -86.6944 North 414 476 33,000 480 Climbing Indianapolis Center
05:39PM 38.0197 -86.6747 North 416 479 33,000  Level Indianapolis Center
05:40PM 38.1336 -86.6564 North 414 476 33,000  Level Indianapolis Center
05:41PM 38.2494 -86.6356 North 422 486 33,000  Level Indianapolis Center
05:42PM 38.3650 -86.6169 North 422 486 33,000  Level Indianapolis Center
05:43PM 38.5050 -86.5922 North 424 488 33,000  Level Indianapolis Center
05:44PM 38.6219 -86.5725 North 425 489 33,000  Level Indianapolis Center
05:45PM 38.7406 -86.5531 North 429 494 33,000  Level Indianapolis Center
05:46PM 38.8578 -86.5336 North 425 489 33,000  Level Indianapolis Center
05:47PM 38.9819 -86.5125 North 428 493 33,000  Level Indianapolis Center
05:48PM 39.0994 -86.4919 North 427 491 33,000  Level Indianapolis Center
05:49PM 39.2189 -86.4828 North 435 501 33,000  Level Indianapolis Center
05:50PM 39.3367 -86.5153 348° North 432 497 33,000  Level Indianapolis Center
05:51PM 39.4786 -86.5550 348° North 434 499 33,000  Level Indianapolis Center
05:52PM 39.5983 -86.5911 347° North 437 503 33,000  Level Indianapolis Center
05:53PM 39.7144 -86.5567 13° North 433 498 33,000  Level Indianapolis Center
05:54PM 39.8086 -86.4583 39° Northeast 427 491 33,000  Level Indianapolis Center
05:55PM 39.9025 -86.3589 39° Northeast 426 490 33,000  Level Indianapolis Center
05:56PM 39.9403 -86.3189 39° Northeast 429 494 33,000  Level Chicago Center
05:57PM 40.0322 -86.2203 39° Northeast 427 491 33,000 -480 Level Chicago Center
05:58PM 40.1244 -86.1217 39° Northeast 429 494 32,100 -960 Descending Chicago Center
05:59PM 40.2150 -86.0233 40° Northeast 424 488 31,100 -1,020 Descending Chicago Center
06:00PM 40.3056 -85.9261 39° Northeast 422 486 30,100 -1,080 Descending Chicago Center
06:01PM 40.4342 -85.8700 18° North 420 483 28,900 -1,140 Descending Chicago Center
06:02PM 40.5358 -85.8044 26° Northeast 425 489 27,800 -1,260 Descending Chicago Center
06:03PM 40.6244 -85.6883 45° Northeast 448 516 26,400 -1,500 Descending Chicago Center
06:04PM 40.7178 -85.5572 47° Northeast 445 512 24,800 -1,200 Descending Chicago Center
06:05PM 40.7997 -85.4433 46° Northeast 434 499 24,000 -780 Descending Chicago Center
06:06PM 40.8808 -85.3297 47° Northeast 429 494 23,300 -720 Descending Chicago Center
06:07PM 40.9583 -85.2136 49° Northeast 425 489 22,500 -780 Descending Chicago Center
06:08PM 41.0458 -85.1144 41° Northeast 420 483 21,700 -780 Descending Chicago Center
06:09PM 41.1525 -85.0017 39° Northeast 414 476 21,000 -360 Descending Chicago Center
06:10PM 41.2411 -84.9056 39° Northeast 414 476 21,000  Level Chicago Center
06:11PM 41.3294 -84.8106 39° Northeast 412 474 21,000  Level Chicago Center
06:12PM 41.4122 -84.7447 31° Northeast 356 410 21,000  Level Chicago Center
06:14PM 41.5017 -84.7047 19° North 340 391 21,000 -300 Level Chicago Center
06:15PM 41.6058 -84.6464 23° Northeast 341 392 20,500 -780 Descending Chicago Center
06:15PM 41.6725 -84.6033 26° Northeast 343 395 19,700 -1,140 Descending Cleveland Center
06:16PM 41.7178 -84.5003 59° Northeast 318 366 18,600 -1,380 Descending Cleveland Center
06:17PM 41.7447 -84.3850 73° East 308 354 17,000 -1,620 Descending Cleveland Center
06:18PM 41.7614 -84.3192 71° East 318 366 16,000 -1,620 Descending Cleveland Center
06:18PM 41.7733 -84.2753 70° East 308 354 15,400 -1,500 Descending Cleveland Center
06:19PM 41.7931 -84.1761 75° East 308 354 14,000 -1,500 Descending Cleveland Center
06:20PM 41.8100 -84.1019 73° East 292 336 12,900 -1,500 Descending Cleveland Center
06:20PM 41.8172 -84.0717 72° East 297 342 12,500 -780 Descending Cleveland Center
06:21PM 41.8692 -84.0047 44° Northeast 256 295 12,000 -1,020 Descending Cleveland Center
06:22PM 41.9247 -83.9603 31° Northeast 241 277 10,600 -1,440 Descending Cleveland Center
06:23PM 41.9828 -83.9047 35° Northeast 239 275 9,100 -1,560 Descending Cleveland Center
06:24PM 41.9681 -83.8314 105° East 226 260 7,600 -1,080 Descending Cleveland Center
06:25PM 41.9261 -83.7678 132° Southeast 226 260 7,000 -360 Descending Cleveland Center
06:26PM 41.8900 -83.7131 132° Southeast 214 246 7,000 -780 Level Cleveland Center
06:27PM 41.8961 -83.6433 83° East 204 235 5,500 -900 Descending Cleveland Center
06:28PM 41.9353 -83.5839 48° Northeast 182 209 5,000 -240 Descending Cleveland Center
06:29PM 41.9800 -83.5469 32° Northeast 181 208 5,000 -240 Level Cleveland Center
06:30PM 42.0247 -83.5153 28° Northeast 178 205 4,600 -720 Descending Cleveland Center
06:31PM 42.0650 -83.4864 28° Northeast 170 196 3,700 -1,020 Descending Cleveland Center